createdAt,value
2019-04-16T00:01:48.608Z,6.88
2019-04-16T00:04:57.664Z,6.82
2019-04-16T00:07:46.917Z,6.96
2019-04-16T00:13:44.346Z,6.71
2019-04-16T00:16:34.113Z,6.83
2019-04-16T00:19:23.887Z,6.70
2019-04-16T00:25:08.904Z,6.74
2019-04-16T00:27:59.901Z,6.67
2019-04-16T00:30:42.427Z,6.51
2019-04-16T00:33:32.122Z,6.48
2019-04-16T00:36:15.427Z,6.47
2019-04-16T00:42:23.542Z,6.34
2019-04-16T00:45:13.364Z,6.40
2019-04-16T00:54:03.603Z,6.27
2019-04-16T00:56:53.299Z,6.17
2019-04-16T00:59:36.048Z,6.16
2019-04-16T01:02:25.880Z,6.11
2019-04-16T01:05:08.007Z,6.19
2019-04-16T01:07:57.810Z,6.08
2019-04-16T01:10:40.350Z,6.23
2019-04-16T01:13:30.078Z,6.21
2019-04-16T01:16:12.048Z,6.19
2019-04-16T01:19:01.792Z,6.20
2019-04-16T01:21:51.480Z,6.30
2019-04-16T01:24:33.756Z,6.14
2019-04-16T01:30:19.784Z,5.95
2019-04-16T01:42:02.425Z,5.64
2019-04-16T01:44:52.244Z,5.69
2019-04-16T01:47:37.158Z,5.84
2019-04-16T01:50:25.846Z,5.72
2019-04-16T01:53:08.038Z,5.53
2019-04-16T01:55:57.803Z,5.29
2019-04-16T01:58:40.812Z,5.52
2019-04-16T02:01:22.865Z,5.48
2019-04-16T02:04:12.650Z,5.54
2019-04-16T02:07:02.673Z,5.53
2019-04-16T02:10:11.502Z,5.42
2019-04-16T02:13:01.329Z,5.46
2019-04-16T02:15:53.522Z,5.46
2019-04-16T02:18:35.515Z,5.49
2019-04-16T02:21:25.422Z,5.42
2019-04-16T02:24:18.551Z,5.30
2019-04-16T02:26:59.353Z,5.33
2019-04-16T02:29:49.108Z,5.43
2019-04-16T02:32:38.894Z,5.49
2019-04-16T02:35:41.477Z,5.46
2019-04-16T02:38:23.930Z,5.45
2019-04-16T02:41:13.671Z,5.38
2019-04-16T02:43:55.908Z,5.22
2019-04-16T02:46:45.616Z,5.20
2019-04-16T02:49:28.223Z,4.95
2019-04-16T02:52:36.791Z,4.91
2019-04-16T02:55:45.365Z,4.92
2019-04-16T03:07:38.263Z,5.00
2019-04-16T03:10:28.023Z,4.97
2019-04-16T03:13:12.359Z,4.80
2019-04-16T03:16:13.129Z,4.80
2019-04-16T03:19:21.725Z,4.93
2019-04-16T03:22:04.152Z,4.83
2019-04-16T03:24:53.901Z,4.89
2019-04-16T03:27:36.507Z,4.82
2019-04-16T03:30:26.246Z,4.87
2019-04-16T03:33:12.720Z,4.83
2019-04-16T03:35:59.767Z,4.79
2019-04-16T03:38:46.253Z,4.67
2019-04-16T03:41:35.991Z,4.70
2019-04-16T03:44:17.950Z,4.79
2019-04-16T03:47:07.792Z,4.79
2019-04-16T03:49:49.737Z,4.78
2019-04-16T03:52:40.852Z,4.79
2019-04-16T03:55:26.339Z,4.75
2019-04-16T03:58:15.011Z,4.56
2019-04-16T04:00:57.804Z,4.66
2019-04-16T04:03:47.537Z,4.59
2019-04-16T04:06:30.326Z,4.62
2019-04-16T04:09:22.220Z,4.60
2019-04-16T04:12:03.758Z,4.64
2019-04-16T04:14:54.241Z,4.54
2019-04-16T04:17:39.555Z,4.62
2019-04-16T04:20:29.319Z,4.68
2019-04-16T04:23:11.970Z,4.53
2019-04-16T04:26:01.690Z,4.64
2019-04-16T04:28:48.627Z,4.55
2019-04-16T04:31:37.226Z,4.65
2019-04-16T04:34:19.802Z,4.63
2019-04-16T04:37:09.616Z,4.61
2019-04-16T04:39:51.862Z,4.61
2019-04-16T04:42:41.600Z,4.49
2019-04-16T04:45:23.600Z,4.61
2019-04-16T04:48:32.492Z,4.56
2019-04-16T04:51:14.599Z,4.59
2019-04-16T04:54:04.350Z,4.66
2019-04-16T04:56:46.448Z,4.68
2019-04-16T04:59:36.698Z,4.72
2019-04-16T05:02:20.307Z,4.81
2019-04-16T05:05:28.818Z,4.92
2019-04-16T05:08:13.941Z,5.01
2019-04-16T05:11:03.758Z,5.23
2019-04-16T05:13:46.584Z,5.23
2019-04-16T05:16:36.313Z,5.58
2019-04-16T05:19:18.352Z,6.01
2019-04-16T05:22:08.050Z,5.91
2019-04-16T05:24:50.130Z,6.09
2019-04-16T05:27:41.058Z,6.14
2019-04-16T05:30:23.968Z,6.18
2019-04-16T05:33:13.746Z,6.22
2019-04-16T05:36:03.548Z,6.24
2019-04-16T05:38:55.803Z,6.24
2019-04-16T05:41:37.966Z,6.32
2019-04-16T05:44:27.762Z,6.38
2019-04-16T05:47:18.283Z,6.40
2019-04-16T05:50:02.030Z,6.47
2019-04-16T05:52:51.832Z,6.71
2019-04-16T05:58:46.286Z,9.11
2019-04-16T06:01:53.223Z,10.80
2019-04-16T06:07:38.771Z,12.85
2019-04-16T06:10:28.541Z,13.44
2019-04-16T06:13:37.150Z,14.16
2019-04-16T06:16:45.765Z,14.58
2019-04-16T06:19:46.780Z,15.10
2019-04-16T06:22:40.011Z,15.87
2019-04-16T06:25:43.246Z,16.59
2019-04-16T06:28:55.086Z,17.00
2019-04-16T06:31:42.902Z,16.92
2019-04-16T06:34:51.436Z,17.36
2019-04-16T06:37:52.493Z,16.91
2019-04-16T06:40:40.785Z,16.03
2019-04-16T06:43:34.103Z,15.14
2019-04-16T06:46:42.677Z,14.56
2019-04-16T06:49:52.171Z,15.52
2019-04-16T06:52:54.209Z,16.30
2019-04-16T06:56:05.530Z,17.30
2019-04-16T06:58:51.224Z,17.81
2019-04-16T07:01:59.711Z,18.26
2019-04-16T07:05:01.232Z,18.39
2019-04-16T07:08:10.487Z,18.97
2019-04-16T07:10:58.402Z,18.94
2019-04-16T07:13:48.132Z,18.86
2019-04-16T07:16:37.873Z,19.29
2019-04-16T07:19:20.554Z,19.15
2019-04-16T07:22:08.313Z,19.07
2019-04-16T07:24:56.272Z,19.66
2019-04-16T07:28:04.835Z,20.00
2019-04-16T07:30:54.418Z,19.57
2019-04-16T07:33:58.795Z,19.12
2019-04-16T07:37:00.484Z,18.67
2019-04-16T07:40:08.666Z,18.93
2019-04-16T07:43:06.663Z,19.23
2019-04-16T07:46:15.288Z,18.07
2019-04-16T07:49:26.506Z,17.19
2019-04-16T07:52:26.526Z,15.75
2019-04-16T07:55:35.280Z,14.80
2019-04-16T07:58:25.213Z,14.23
2019-04-16T08:01:16.483Z,14.60
2019-04-16T08:04:01.032Z,15.83
2019-04-16T08:06:51.196Z,16.41
2019-04-16T08:09:40.986Z,16.15
2019-04-16T08:12:31.149Z,16.22
2019-04-16T08:15:15.626Z,15.88
2019-04-16T08:18:05.470Z,15.35
2019-04-16T08:21:01.677Z,15.55
2019-04-16T08:23:44.890Z,15.90
2019-04-16T08:26:34.639Z,16.46
2019-04-16T08:29:26.566Z,16.12
2019-04-16T08:32:09.350Z,15.21
2019-04-16T08:34:59.386Z,14.92
2019-04-16T08:37:49.338Z,14.99
2019-04-16T08:40:34.610Z,14.75
2019-04-16T08:43:26.701Z,14.58
2019-04-16T08:46:11.295Z,14.07
2019-04-16T08:49:00.656Z,13.88
2019-04-16T08:51:50.402Z,13.92
2019-04-16T08:54:40.148Z,14.00
2019-04-16T08:57:32.025Z,13.84
2019-04-16T09:00:15.513Z,13.91
2019-04-16T09:03:05.323Z,14.04
2019-04-16T09:05:48.387Z,14.07
2019-04-16T09:11:55.438Z,14.26
2019-04-16T09:21:06.915Z,14.59
2019-04-16T09:24:09.891Z,14.49
2019-04-16T09:27:18.605Z,14.67
2019-04-16T09:30:27.376Z,14.98
2019-04-16T09:33:16.156Z,15.14
2019-04-16T09:36:43.825Z,15.28
2019-04-16T09:39:57.617Z,15.40
2019-04-16T09:42:39.717Z,15.44
2019-04-16T09:45:29.606Z,15.67
2019-04-16T09:48:12.082Z,15.75
2019-04-16T09:54:12.529Z,16.06
2019-04-16T09:56:52.294Z,16.33
2019-04-16T10:02:40.929Z,16.70
2019-04-16T10:05:30.741Z,17.03
2019-04-16T10:08:13.644Z,17.02
2019-04-16T10:11:06.019Z,17.07
2019-04-16T10:13:47.516Z,17.04
2019-04-16T10:16:37.382Z,17.46
2019-04-16T10:19:21.912Z,17.65
2019-04-16T10:22:12.493Z,17.78
2019-04-16T10:28:29.480Z,17.70
2019-04-16T10:31:13.333Z,17.51
2019-04-16T10:34:15.995Z,17.94
2019-04-16T10:36:59.197Z,17.51
2019-04-16T10:40:07.717Z,17.66
2019-04-16T10:43:09.451Z,17.86
2019-04-16T10:49:04.505Z,18.25
2019-04-16T10:52:13.754Z,17.76
2019-04-16T10:55:11.809Z,18.08
2019-04-16T10:58:14.296Z,18.20
2019-04-16T11:01:23.495Z,18.16
2019-04-16T11:04:32.679Z,18.24
2019-04-16T11:07:09.698Z,18.48
2019-04-16T11:10:19.144Z,18.55
2019-04-16T11:13:03.984Z,18.24
2019-04-16T11:19:05.253Z,18.11
2019-04-16T11:21:48.816Z,18.54
2019-04-16T11:27:36.016Z,18.94
2019-04-16T11:36:32.782Z,19.21
2019-04-16T11:39:23.183Z,19.29
2019-04-16T11:42:13.572Z,19.29
2019-04-16T11:44:57.155Z,19.23
2019-04-16T11:47:48.285Z,19.36
2019-04-16T11:50:35.990Z,19.33
2019-04-16T11:53:25.704Z,19.58
2019-04-16T11:56:16.189Z,19.45
2019-04-16T12:02:30.187Z,18.90
2019-04-16T12:08:39.210Z,18.17
2019-04-16T12:11:48.796Z,18.20
2019-04-16T12:14:58.040Z,18.16
2019-04-16T12:18:07.347Z,18.45
2019-04-16T12:21:16.592Z,18.51
2019-04-16T12:24:25.792Z,18.65
2019-04-16T12:27:35.048Z,18.43
2019-04-16T12:30:40.307Z,18.53
2019-04-16T12:36:33.120Z,18.69
2019-04-16T12:39:42.300Z,18.75
2019-04-16T12:42:41.199Z,18.64
2019-04-16T12:45:46.605Z,18.83
2019-04-16T12:48:48.237Z,18.85
2019-04-16T12:51:57.565Z,18.77
2019-04-16T12:54:59.864Z,18.86
2019-04-16T12:58:09.049Z,18.59
2019-04-16T13:01:14.932Z,18.76
2019-04-16T13:04:24.244Z,18.90
2019-04-16T13:07:30.749Z,18.91
2019-04-16T13:10:28.075Z,18.68
2019-04-16T13:13:37.248Z,18.78
2019-04-16T13:16:40.175Z,19.06
2019-04-16T13:19:41.977Z,19.02
2019-04-16T13:22:37.825Z,19.25
2019-04-16T13:26:06.136Z,19.39
2019-04-16T13:28:56.676Z,19.22
2019-04-16T13:31:47.691Z,19.03
2019-04-16T13:34:38.053Z,19.14
2019-04-16T13:37:30.416Z,19.15
2019-04-16T13:43:20.316Z,19.03
2019-04-16T13:46:10.725Z,18.85
2019-04-16T13:51:57.144Z,19.22
2019-04-16T13:58:07.097Z,18.92
2019-04-16T14:01:03.413Z,19.15
2019-04-16T14:03:46.697Z,18.98
2019-04-16T14:06:37.035Z,18.86
2019-04-16T14:09:23.735Z,18.71
2019-04-16T14:12:14.126Z,18.73
2019-04-16T14:14:58.423Z,18.73
2019-04-16T14:17:53.001Z,18.79
2019-04-16T14:20:33.547Z,18.71
2019-04-16T14:23:23.897Z,18.60
2019-04-16T14:26:07.255Z,18.96
2019-04-16T14:28:57.604Z,19.07
2019-04-16T14:31:41.055Z,18.62
2019-04-16T14:37:42.759Z,18.68
2019-04-16T14:40:33.339Z,18.56
2019-04-16T14:43:18.772Z,18.55
2019-04-16T14:46:09.813Z,18.26
2019-04-16T14:48:53.988Z,18.02
2019-04-16T14:51:44.417Z,18.08
2019-04-16T14:57:58.333Z,18.23
2019-04-16T15:01:00.880Z,18.15
2019-04-16T15:04:10.216Z,18.35
2019-04-16T15:07:19.868Z,18.41
2019-04-16T15:10:29.262Z,18.33
2019-04-16T15:13:31.710Z,18.41
2019-04-16T15:16:40.812Z,18.54
2019-04-16T15:19:50.274Z,18.43
2019-04-16T15:22:52.563Z,18.27
2019-04-16T15:25:55.159Z,18.14
2019-04-16T15:28:50.649Z,18.19
2019-04-16T15:32:04.336Z,18.15
2019-04-16T15:37:57.972Z,18.11
2019-04-16T15:40:48.888Z,17.93
2019-04-16T15:43:40.830Z,18.06
2019-04-16T15:46:47.836Z,18.00
2019-04-16T15:49:57.388Z,17.99
2019-04-16T15:52:49.063Z,18.00
2019-04-16T15:55:52.696Z,17.86
2019-04-16T15:58:42.862Z,17.68
2019-04-16T16:01:52.067Z,17.60
2019-04-16T16:04:46.455Z,17.42
2019-04-16T16:07:42.291Z,17.63
2019-04-16T16:10:29.371Z,17.36
2019-04-16T16:13:19.128Z,17.28
2019-04-16T16:16:02.150Z,17.20
2019-04-16T16:18:45.160Z,17.08
2019-04-16T16:21:27.181Z,16.96
2019-04-16T16:24:17.336Z,16.80
2019-04-16T16:27:07.164Z,16.73
2019-04-16T16:29:56.992Z,16.59
2019-04-16T16:32:46.772Z,16.58
2019-04-16T16:35:36.627Z,16.62
2019-04-16T16:38:26.493Z,16.58
2019-04-16T16:41:09.940Z,16.30
2019-04-16T16:43:52.019Z,16.16
2019-04-16T16:49:45.801Z,16.02
2019-04-16T16:52:54.494Z,15.91
2019-04-16T16:55:58.972Z,15.67
2019-04-16T16:59:07.527Z,15.51
2019-04-16T17:02:14.699Z,15.47
2019-04-16T17:04:57.581Z,15.28
2019-04-16T17:07:47.413Z,15.21
2019-04-16T17:13:43.115Z,14.94
2019-04-16T17:16:33.091Z,14.79
2019-04-16T17:19:41.937Z,14.85
2019-04-16T17:22:31.781Z,14.72
2019-04-16T17:25:35.616Z,14.67
2019-04-16T17:28:05.909Z,14.64
2019-04-16T17:30:55.801Z,14.56
2019-04-16T17:33:58.613Z,14.55
2019-04-16T17:36:40.901Z,14.52
2019-04-16T17:39:49.431Z,14.40
2019-04-16T17:42:37.649Z,14.34
2019-04-16T17:45:45.423Z,14.21
2019-04-16T17:48:35.419Z,14.11
2019-04-16T17:51:43.963Z,13.94
2019-04-16T17:57:42.814Z,13.94
2019-04-16T18:00:51.457Z,13.92
2019-04-16T18:07:18.037Z,13.76
2019-04-16T18:10:22.473Z,13.73
2019-04-16T18:13:16.495Z,13.66
2019-04-16T18:16:10.654Z,13.61
2019-04-16T18:22:17.975Z,13.65
2019-04-16T18:25:26.553Z,13.68
2019-04-16T18:28:15.457Z,13.57
2019-04-16T18:31:11.423Z,13.40
2019-04-16T18:34:09.286Z,13.32
2019-04-16T18:37:17.476Z,13.27
2019-04-16T18:40:18.433Z,13.18
2019-04-16T18:43:27.077Z,13.09
2019-04-16T18:46:31.658Z,13.00
2019-04-16T18:52:25.431Z,12.86
2019-04-16T18:55:15.268Z,12.70
2019-04-16T18:57:57.827Z,12.82
2019-04-16T19:04:16.582Z,12.69
2019-04-16T19:07:06.765Z,12.45
2019-04-16T19:09:48.748Z,12.58
2019-04-16T19:15:44.015Z,12.56
2019-04-16T19:18:33.774Z,12.56
2019-04-16T19:21:16.216Z,12.41
2019-04-16T19:24:05.994Z,12.71
2019-04-16T19:26:48.981Z,12.58
2019-04-16T19:32:35.349Z,12.46
2019-04-16T19:35:09.880Z,12.43
2019-04-16T19:37:50.436Z,12.45
2019-04-16T19:40:40.554Z,12.28
2019-04-16T19:46:23.439Z,12.12
2019-04-16T19:49:08.550Z,12.12
2019-04-16T19:51:51.585Z,12.05
2019-04-16T19:54:34.334Z,11.95
2019-04-16T19:57:24.576Z,12.06
2019-04-16T20:03:05.532Z,12.11
2019-04-16T20:05:55.760Z,12.29
2019-04-16T20:08:40.507Z,12.26
2019-04-16T20:11:30.668Z,12.29
2019-04-16T20:14:14.394Z,12.29
2019-04-16T20:17:04.835Z,12.11
2019-04-16T20:20:06.560Z,11.95
2019-04-16T20:22:56.390Z,11.82
2019-04-16T20:28:36.132Z,11.88
2019-04-16T20:31:39.014Z,11.70
2019-04-16T20:34:21.274Z,11.72
2019-04-16T20:37:11.029Z,11.65
2019-04-16T20:39:53.624Z,11.68
2019-04-16T20:42:43.756Z,11.52
2019-04-16T20:45:26.176Z,11.59
2019-04-16T20:48:15.966Z,11.64
2019-04-16T20:51:04.402Z,11.58
2019-04-16T20:53:54.182Z,11.52
2019-04-16T20:56:40.392Z,11.51
2019-04-16T20:59:28.509Z,11.50
2019-04-16T21:02:13.174Z,11.57
2019-04-16T21:05:04.529Z,11.42
2019-04-16T21:07:48.268Z,11.42
2019-04-16T21:10:38.060Z,11.39
2019-04-16T21:13:27.879Z,11.34
2019-04-16T21:16:17.685Z,11.25
2019-04-16T21:19:22.196Z,11.24
2019-04-16T21:21:55.114Z,11.19
2019-04-16T21:24:43.863Z,11.06
2019-04-16T21:28:12.205Z,11.00
2019-04-16T21:31:20.791Z,10.86
2019-04-16T21:37:12.507Z,10.65
2019-04-16T21:40:03.355Z,10.72
2019-04-16T21:42:45.803Z,10.76
2019-04-16T21:45:35.889Z,10.74
2019-04-16T21:48:27.053Z,10.82
2019-04-16T21:51:09.745Z,10.80
2019-04-16T21:53:59.541Z,10.86
2019-04-16T21:56:49.435Z,10.92
2019-04-16T21:59:39.203Z,10.94
2019-04-16T22:02:37.975Z,10.97
2019-04-16T22:05:27.324Z,10.97
2019-04-16T22:08:10.773Z,10.96
2019-04-16T22:11:00.595Z,10.94
2019-04-16T22:13:50.415Z,10.96
2019-04-16T22:16:37.047Z,10.71
2019-04-16T22:19:27.157Z,10.93
2019-04-16T22:22:14.091Z,10.82
2019-04-16T22:28:24.399Z,10.93
2019-04-16T22:31:06.409Z,10.91
2019-04-16T22:33:37.141Z,10.91
2019-04-16T22:36:27.344Z,10.94
2019-04-16T22:39:36.183Z,11.00
2019-04-16T22:42:43.595Z,11.08
2019-04-16T22:45:52.604Z,11.05
2019-04-16T22:48:23.363Z,10.93
2019-04-16T22:51:13.437Z,10.93
2019-04-16T22:54:03.244Z,10.89
2019-04-16T22:57:04.859Z,10.91
2019-04-16T22:59:54.922Z,10.85
2019-04-16T23:02:41.863Z,10.86
2019-04-16T23:05:51.194Z,10.76
2019-04-16T23:08:33.267Z,10.73
2019-04-16T23:11:15.506Z,10.68
2019-04-16T23:13:57.570Z,10.74
2019-04-16T23:16:42.776Z,10.74
2019-04-16T23:19:25.516Z,10.67
2019-04-16T23:22:15.490Z,10.65
2019-04-16T23:25:05.622Z,10.61
2019-04-16T23:27:55.581Z,10.52
2019-04-16T23:30:48.009Z,10.53
2019-04-16T23:33:32.787Z,10.50
2019-04-16T23:36:21.958Z,10.47
2019-04-16T23:39:11.776Z,10.47
2019-04-16T23:42:01.557Z,10.47
2019-04-16T23:45:10.362Z,10.35
2019-04-16T23:48:19.238Z,10.46
2019-04-16T23:51:29.034Z,10.41
2019-04-16T23:54:23.628Z,10.41
2019-04-16T23:57:35.696Z,10.38
